Terminal Aerodrome Forecast
Issued by NWS Cleveland, OH

Home | Current Version | Previous Version | Text Only | Print | Product List | Glossary On
Versions: 1 2 3 4 5 6 7 8 9 10 11 12 13 14 15 16 17 18
000
FTUS41 KCLE 010300 AAB
TAFTOL
TAF AMD
KTOL 010349Z 0104/0124 10004KT 2SM -SN OVC025
      TEMPO 0104/0106 3/4SM -SN OVC012
     FM010600 08003KT 1SM -SN OVC010
     FM011000 VRB03KT 3/4SM -SN OVC008
     FM011600 30004KT 4SM -SN SCT008 OVC015
     FM012000 25005KT P6SM OVC045=

USA.gov is the U.S. government's official web portal to all federal, state and local government web resources and services.